Time;durP1;ratioP1;P1;durP2;ratioP2;P2;SDS_P1;SDS_P2;PMS_P1;PMS_P2;Temp;Humidity;BMP_temperature;BMP_pressure;BME280_temperature;BME280_humidity;BME280_pressure;Samples;Min_cycle;Max_cycle;Signal;HPM_P1;HPM_P2
2022/10/29 00:02:00;;;;;;;7.22;1.45;;;;;;;5.82;100.00;101447.88;4942403;28;20056;-88
2022/10/29 00:04:31;;;;;;;3.92;1.88;;;;;;;6.32;100.00;101502.59;4942019;28;20056;-89
2022/10/29 00:07:12;;;;;;;7.40;1.73;;;;;;;6.65;100.00;101553.47;4937208;28;20044;-89
2022/10/29 00:09:50;;;;;;;4.45;1.42;;;;;;;6.43;100.00;101498.50;4900526;28;20240;-88
2022/10/29 00:12:35;;;;;;;10.70;2.38;;;;;;;6.67;100.00;101523.22;4933143;28;20113;-87
2022/10/29 00:19:03;;;;;;;4.65;1.85;;;;;;;5.67;100.00;101385.31;4933065;28;20052;-87
2022/10/29 00:21:53;;;;;;;3.05;1.10;;;;;;;5.79;100.00;101407.19;4893852;28;20808;-91
2022/10/29 00:24:31;;;;;;;2.92;1.10;;;;;;;6.00;100.00;101411.97;4877762;28;20908;-89
2022/10/29 00:27:12;;;;;;;4.35;1.60;;;;;;;6.82;100.00;101515.72;4883736;28;20105;-89
2022/10/29 00:29:43;;;;;;;3.92;2.50;;;;;;;6.64;100.00;101476.38;4871906;28;20435;-89
2022/10/29 00:32:15;;;;;;;6.75;2.58;;;;;;;6.62;100.00;101439.16;4867084;28;20551;-85
2022/10/29 00:34:46;;;;;;;7.13;1.90;;;;;;;6.61;100.00;101447.78;4872458;28;20046;-88
2022/10/29 00:37:19;;;;;;;4.90;2.38;;;;;;;6.83;100.00;101507.06;4872340;28;20134;-86
2022/10/29 00:39:50;;;;;;;4.82;1.98;;;;;;;7.00;100.00;101511.72;4870682;28;20073;-87
2022/10/29 00:42:21;;;;;;;6.20;2.15;;;;;;;6.86;100.00;101486.38;4870423;28;20070;-87
2022/10/29 00:44:52;;;;;;;3.83;1.83;;;;;;;6.41;100.00;101393.72;4855603;28;20059;-85
2022/10/29 00:47:27;;;;;;;5.45;2.20;;;;;;;6.62;100.00;101444.34;4859042;28;20058;-87
2022/10/29 00:50:01;;;;;;;3.70;1.80;;;;;;;6.95;100.00;101475.25;4861250;28;20050;-87
2022/10/29 00:52:36;;;;;;;6.60;2.90;;;;;;;6.74;100.00;101444.56;4847686;28;20073;-86
2022/10/29 00:55:10;;;;;;;3.30;2.03;;;;;;;6.94;100.00;101478.72;4849070;28;20057;-88
2022/10/29 00:57:48;;;;;;;9.00;2.47;;;;;;;6.66;100.00;101446.13;4850666;28;20073;-87
2022/10/29 01:00:20;;;;;;;6.28;2.28;;;;;;;6.55;100.00;101416.50;4922071;28;20055;-87
2022/10/29 01:02:53;;;;;;;9.25;2.80;;;;;;;6.84;100.00;101472.47;4907651;28;20047;-86
2022/10/29 01:05:29;;;;;;;8.43;3.25;;;;;;;6.99;100.00;101507.34;4900503;28;20061;-86
2022/10/29 01:08:02;;;;;;;4.93;1.88;;;;;;;6.41;100.00;101404.13;4932257;28;20116;-87
2022/10/29 01:10:45;;;;;;;5.20;1.88;;;;;;;6.93;100.00;101491.66;4921887;28;20051;-86
2022/10/29 01:13:37;;;;;;;5.75;2.38;;;;;;;6.95;100.00;101501.22;4916604;28;20053;-87
2022/10/29 01:16:16;;;;;;;10.05;3.40;;;;;;;6.37;100.00;101397.13;4906719;28;20360;-87
2022/10/29 01:18:57;;;;;;;5.18;2.40;;;;;;;6.37;100.00;101407.53;4918667;28;20056;-87
2022/10/29 01:21:44;;;;;;;6.93;2.30;;;;;;;6.64;100.00;101437.44;4924821;28;20063;-85
2022/10/29 01:24:39;;;;;;;7.18;2.95;;;;;;;6.71;100.00;101449.69;4931910;28;20243;-86
2022/10/29 01:27:41;;;;;;;15.45;5.68;;;;;;;6.48;100.00;101418.97;4933640;28;20066;-85
2022/10/29 01:30:21;;;;;;;11.80;3.35;;;;;;;6.31;100.00;101381.44;4938951;28;20052;-87
2022/10/29 01:33:04;;;;;;;4.60;2.08;;;;;;;6.97;100.00;101483.09;4920908;28;20044;-86
2022/10/29 01:35:46;;;;;;;5.93;2.55;;;;;;;6.47;100.00;101412.03;4907173;28;20066;-87
2022/10/29 01:38:27;;;;;;;8.32;2.60;;;;;;;6.68;100.00;101444.44;4925757;28;20208;-86
2022/10/29 01:41:06;;;;;;;10.90;2.33;;;;;;;6.85;100.00;101448.22;4924812;28;20055;-87
2022/10/29 01:43:41;;;;;;;7.22;2.40;;;;;;;6.95;100.00;101458.78;4934000;28;20174;-86
2022/10/29 01:46:18;;;;;;;6.18;1.95;;;;;;;6.76;100.00;101424.66;4936964;28;20054;-87
2022/10/29 01:48:55;;;;;;;2.75;1.27;;;;;;;6.65;100.00;101402.84;4930221;28;20048;-87
2022/10/29 01:51:33;;;;;;;5.00;1.38;;;;;;;6.93;100.00;101439.69;4928019;28;20052;-88
2022/10/29 01:54:10;;;;;;;7.72;2.20;;;;;;;6.67;100.00;101380.38;4919845;28;20054;-90
2022/10/29 01:56:42;;;;;;;8.18;1.35;;;;;;;7.28;100.00;101469.75;4934950;28;20048;-87
2022/10/29 01:59:14;;;;;;;7.35;2.55;;;;;;;7.22;100.00;101472.25;4944283;28;20036;-87
2022/10/29 02:02:24;;;;;;;11.93;2.30;;;;;;;7.12;100.00;101436.56;4929415;28;20056;-87
2022/10/29 02:05:11;;;;;;;7.45;1.95;;;;;;;7.15;100.00;101453.94;4919734;28;20032;-89
2022/10/29 02:07:50;;;;;;;4.47;1.50;;;;;;;7.35;100.00;101476.78;4920081;28;20075;-88
2022/10/29 02:10:33;;;;;;;4.53;1.50;;;;;;;7.04;100.00;101401.75;4904063;28;20357;-89
2022/10/29 02:13:04;;;;;;;5.78;1.42;;;;;;;6.50;100.00;101329.88;4933386;28;20049;-88
2022/10/29 02:15:38;;;;;;;6.03;1.55;;;;;;;7.26;100.00;101474.06;4928831;28;20116;-88
2022/10/29 02:18:09;;;;;;;6.68;1.38;;;;;;;7.10;100.00;101438.25;4943344;28;20055;-88
2022/10/29 02:20:47;;;;;;;5.35;1.42;;;;;;;6.60;100.00;101373.31;4942137;28;20400;-89
2022/10/29 02:23:19;;;;;;;5.75;1.70;;;;;;;6.68;100.00;101387.31;4932224;28;20048;-86
2022/10/29 02:25:52;;;;;;;4.10;1.25;;;;;;;7.21;100.00;101441.88;4941893;28;20108;-87
2022/10/29 02:28:23;;;;;;;6.45;1.30;;;;;;;6.81;100.00;101378.88;4927186;28;20049;-89
2022/10/29 02:30:56;;;;;;;5.00;1.70;;;;;;;6.85;100.00;101391.06;4934169;28;20211;-87
2022/10/29 02:33:27;;;;;;;6.50;2.03;;;;;;;6.61;100.00;101323.13;4937389;28;20115;-89
2022/10/29 02:36:07;;;;;;;8.73;1.45;;;;;;;7.32;100.00;101414.34;4940612;28;20063;-89
2022/10/29 02:38:48;;;;;;;8.77;1.65;;;;;;;6.84;100.00;101311.38;4939232;28;20400;-90
2022/10/29 02:41:27;;;;;;;4.25;1.23;;;;;;;7.13;100.00;101355.13;4912488;28;21291;-90
2022/10/29 02:44:09;;;;;;;4.22;1.20;;;;;;;6.81;100.00;101321.72;4922823;28;20050;-90
2022/10/29 02:46:49;;;;;;;4.70;1.40;;;;;;;7.37;100.00;101421.34;4923916;28;20071;-86
2022/10/29 02:53:27;;;;;;;15.15;5.13;;;;;;;6.78;100.00;101358.03;4834596;28;20081;-89
2022/10/29 02:56:02;;;;;;;12.05;3.47;;;;;;;6.60;100.00;101357.72;4842221;28;20050;-90
2022/10/29 02:58:33;;;;;;;6.72;2.20;;;;;;;7.03;100.00;101421.69;4850119;28;20051;-89
2022/10/29 03:01:05;;;;;;;7.50;1.80;;;;;;;6.84;100.00;101404.00;4844285;28;20050;-87
2022/10/29 03:03:36;;;;;;;13.18;3.15;;;;;;;6.54;100.00;101358.50;4854653;28;20070;-86
2022/10/29 03:06:13;;;;;;;8.85;2.80;;;;;;;6.82;100.00;101417.00;4855666;28;20194;-87
2022/10/29 03:08:44;;;;;;;7.00;2.50;;;;;;;5.89;100.00;101288.94;4847971;28;20066;-88
2022/10/29 03:11:20;;;;;;;9.60;2.08;;;;;;;6.12;100.00;101337.84;4857149;28;20117;-89
2022/10/29 03:13:54;;;;;;;10.10;2.75;;;;;;;5.89;100.00;101314.88;4855204;28;20058;-89
2022/10/29 03:16:25;;;;;;;6.78;2.53;;;;;;;6.54;100.00;101414.75;4883412;28;20062;-91
2022/10/29 03:18:56;;;;;;;5.60;2.33;;;;;;;6.31;100.00;101390.94;4946702;28;20414;-90
2022/10/29 03:21:27;;;;;;;8.57;2.72;;;;;;;5.49;100.00;101290.75;4931731;28;20058;-90
2022/10/29 03:23:59;;;;;;;6.53;2.40;;;;;;;6.31;100.00;101422.97;4927471;28;20048;-91
2022/10/29 03:26:38;;;;;;;11.50;2.75;;;;;;;5.80;100.00;101331.13;4917616;28;20044;-90
2022/10/29 03:29:15;;;;;;;5.75;2.90;;;;;;;6.30;100.00;101421.22;4927072;28;20044;-85
2022/10/29 03:31:47;;;;;;;9.20;2.63;;;;;;;5.75;100.00;101326.69;4920580;28;20043;-86
2022/10/29 03:34:17;;;;;;;11.38;2.90;;;;;;;5.70;100.00;101338.69;4939462;28;20040;-85
2022/10/29 03:36:48;;;;;;;11.20;3.53;;;;;;;6.34;100.00;101407.47;4945584;28;20073;-86
2022/10/29 03:39:19;;;;;;;12.05;2.45;;;;;;;6.31;100.00;101401.34;4937420;28;20488;-86
2022/10/29 03:41:55;;;;;;;13.35;3.50;;;;;;;6.24;100.00;101389.94;4936640;28;20379;-86
2022/10/29 03:44:26;;;;;;;17.95;2.90;;;;;;;5.94;100.00;101344.41;4929134;28;20078;-86
2022/10/29 03:46:57;;;;;;;100.38;4.75;;;;;;;6.19;100.00;101396.75;4946643;28;20505;-86
2022/10/29 03:49:28;;;;;;;123.90;6.25;;;;;;;6.17;100.00;101393.28;4946734;28;20044;-84
2022/10/29 03:51:59;;;;;;;142.30;6.13;;;;;;;5.52;100.00;101292.53;4936129;28;20344;-84
2022/10/29 03:54:32;;;;;;;185.07;8.70;;;;;;;5.97;100.00;101375.59;4942291;28;20050;-84
2022/10/29 03:57:05;;;;;;;84.53;6.03;;;;;;;5.98;100.00;101364.38;4954120;28;20053;-85
2022/10/29 03:59:36;;;;;;;24.58;2.70;;;;;;;5.93;100.00;101347.81;4946566;28;20062;-85
2022/10/29 04:02:07;;;;;;;53.13;4.18;;;;;;;5.96;100.00;101350.47;4937290;28;20047;-85
2022/10/29 04:04:38;;;;;;;32.75;4.40;;;;;;;5.74;100.00;101307.66;4926725;28;20040;-85
2022/10/29 04:07:09;;;;;;;89.72;6.20;;;;;;;5.93;100.00;101358.19;4939980;28;20047;-85
2022/10/29 04:09:43;;;;;;;59.03;5.68;;;;;;;5.87;100.00;101326.94;4945307;28;20339;-85
2022/10/29 04:12:16;;;;;;;167.15;7.30;;;;;;;5.94;100.00;101339.22;4937103;28;20048;-86
2022/10/29 04:17:58;;;;;;;92.68;6.50;;;;;;;6.11;100.00;101377.59;4831690;28;20042;-61
2022/10/29 04:20:37;;;;;;;27.15;5.45;;;;;;;6.01;100.00;101356.63;4839046;28;20058;-61
2022/10/29 04:23:54;;;;;;;11.15;3.50;;;;;;;6.07;100.00;101366.28;4838024;28;20331;-61
2022/10/29 04:27:08;;;;;;;18.02;4.15;;;;;;;6.18;100.00;101353.50;4837463;28;20110;-60
2022/10/29 04:30:09;;;;;;;8.68;2.92;;;;;;;6.11;100.00;101333.47;4866628;28;20107;-60
2022/10/29 04:32:50;;;;;;;15.40;4.32;;;;;;;6.30;100.00;101358.94;4862684;28;20063;-60
2022/10/29 04:35:33;;;;;;;8.60;4.22;;;;;;;6.34;100.00;101350.38;4875431;28;20097;-60
2022/10/29 04:38:28;;;;;;;17.30;3.80;;;;;;;6.38;100.00;101346.94;4864908;28;20120;-62
2022/10/29 04:41:09;;;;;;;12.23;3.55;;;;;;;6.37;100.00;101337.44;4810117;28;20082;-62
2022/10/29 04:43:53;;;;;;;11.52;3.55;;;;;;;6.31;100.00;101337.31;4871691;28;20058;-62
2022/10/29 04:49:43;;;;;;;11.75;3.17;;;;;;;6.27;100.00;101343.31;4860193;28;20069;-62
2022/10/29 04:52:25;;;;;;;23.63;3.40;;;;;;;6.29;100.00;101341.63;4871467;28;20037;-61
2022/10/29 04:55:07;;;;;;;23.58;4.30;;;;;;;6.30;100.00;101332.97;4870444;28;20066;-62
2022/10/29 04:57:54;;;;;;;25.40;3.88;;;;;;;6.31;100.00;101329.53;4775291;28;20053;-61
2022/10/29 05:00:38;;;;;;;30.83;4.38;;;;;;;6.29;100.00;101326.03;4860852;28;20038;-61
2022/10/29 05:03:19;;;;;;;36.80;4.25;;;;;;;6.25;100.00;101339.81;4842405;28;20053;-61
2022/10/29 05:05:59;;;;;;;37.40;3.95;;;;;;;6.21;100.00;101340.59;4828221;28;20122;-60
2022/10/29 05:08:45;;;;;;;32.83;3.50;;;;;;;6.18;100.00;101348.31;4870829;28;20063;-61
2022/10/29 05:11:24;;;;;;;29.63;3.35;;;;;;;6.11;100.00;101328.28;4826424;28;20054;-61
2022/10/29 05:14:02;;;;;;;22.20;3.45;;;;;;;6.13;100.00;101345.63;4812585;28;20272;-61
2022/10/29 05:17:14;;;;;;;49.08;3.80;;;;;;;6.09;100.00;101348.13;4867371;28;20049;-63
2022/10/29 05:20:41;;;;;;;33.13;3.63;;;;;;;6.11;100.00;101346.44;4834859;28;20061;-61
2022/10/29 05:24:05;;;;;;;49.95;4.28;;;;;;;6.12;100.00;101348.22;4872223;28;20073;-62
2022/10/29 05:27:17;;;;;;;103.30;7.20;;;;;;;6.11;100.00;101341.25;4864622;28;20049;-61
2022/10/29 05:30:35;;;;;;;68.55;5.63;;;;;;;6.09;100.00;101353.31;4858740;28;20059;-61
2022/10/29 05:33:46;;;;;;;70.25;5.93;;;;;;;6.00;100.00;101354.91;4842760;28;20092;-61
2022/10/29 05:36:59;;;;;;;86.13;7.97;;;;;;;5.97;100.00;101354.84;4864147;28;20082;-61
2022/10/29 05:40:19;;;;;;;85.85;6.70;;;;;;;5.93;100.00;101368.56;4884771;28;20055;-61
2022/10/29 05:43:42;;;;;;;34.13;4.68;;;;;;;5.88;100.00;101362.41;4868768;28;20045;-62
2022/10/29 05:46:53;;;;;;;25.15;5.03;;;;;;;5.86;100.00;101356.31;4838979;28;20046;-61
2022/10/29 05:53:37;;;;;;;53.20;5.55;;;;;;;5.88;100.00;101371.91;4860121;28;20076;-61
2022/10/29 05:56:31;;;;;;;;;;;;;;;5.87;100.00;101363.25;4816644;28;20060;-60
2022/10/29 05:59:52;;;;;;;32.50;4.70;;;;;;;5.89;100.00;101351.19;4851751;28;19925;-61
2022/10/29 06:06:07;;;;;;;;;;;;;;;5.88;100.00;101372.78;4837537;28;20050;-63
2022/10/29 06:09:21;;;;;;;103.63;6.40;;;;;;;5.85;100.00;101370.13;4850263;28;19949;-62
2022/10/29 06:12:40;;;;;;;22.73;4.97;;;;;;;5.83;100.00;101366.63;4835571;28;20046;-63
2022/10/29 06:15:57;;;;;;;43.38;4.78;;;;;;;5.87;100.00;101363.25;4861172;28;20049;-61
2022/10/29 06:19:21;;;;;;;56.80;6.63;;;;;;;5.91;100.00;101362.44;4825041;28;20046;-60
2022/10/29 06:22:28;;;;;;;24.35;5.15;;;;;;;5.97;100.00;101360.03;4875324;28;20038;-60
2022/10/29 06:26:00;;;;;;;15.35;4.20;;;;;;;5.96;100.00;101363.44;4869138;28;20167;-63
2022/10/29 06:32:52;;;;;;;15.15;4.15;;;;;;;5.88;100.00;101349.44;4810227;28;20046;-60
2022/10/29 06:36:03;;;;;;;14.57;3.53;;;;;;;5.88;100.00;101346.84;4866154;28;21129;-60
2022/10/29 06:39:21;;;;;;;15.88;4.38;;;;;;;5.87;100.00;101355.47;4847910;28;20050;-60
2022/10/29 06:42:42;;;;;;;10.60;3.25;;;;;;;5.85;100.00;101349.38;4856849;28;20046;-60
2022/10/29 06:45:28;;;;;;;7.28;2.45;;;;;;;5.83;100.00;101336.34;4851371;28;20378;-59
2022/10/29 06:48:17;;;;;;;4.65;2.38;;;;;;;5.85;100.00;101328.63;4844032;28;20042;-58
2022/10/29 06:51:13;;;;;;;6.95;3.00;;;;;;;5.78;100.00;101316.38;4861770;28;20063;-59
2022/10/29 06:53:50;;;;;;;8.27;2.78;;;;;;;5.83;100.00;101330.31;4840879;28;20050;-60
2022/10/29 06:56:30;;;;;;;6.43;2.30;;;;;;;5.85;100.00;101328.63;4854182;28;20051;-60
2022/10/29 06:59:14;;;;;;;6.43;2.40;;;;;;;5.83;100.00;101325.13;4860096;28;20037;-61
2022/10/29 07:02:05;;;;;;;5.63;2.42;;;;;;;5.82;100.00;101324.25;4852039;28;20057;-59
2022/10/29 07:04:38;;;;;;;5.57;2.20;;;;;;;5.80;100.00;101325.94;4848171;28;20140;-60
2022/10/29 07:07:46;;;;;;;11.52;2.80;;;;;;;5.73;100.00;101325.78;4872571;28;20077;-58
2022/10/29 07:10:36;;;;;;;5.53;2.70;;;;;;;5.47;100.00;101274.28;4861953;28;20065;-59
2022/10/29 07:13:22;;;;;;;6.45;2.92;;;;;;;5.54;100.00;101312.44;4877768;28;20156;-60
2022/10/29 07:16:05;;;;;;;11.50;3.90;;;;;;;5.78;100.00;101327.63;4872853;28;20271;-59
2022/10/29 07:19:06;;;;;;;13.10;3.58;;;;;;;5.78;100.00;101331.94;4891075;28;20057;-60
2022/10/29 07:21:47;;;;;;;7.13;3.00;;;;;;;5.75;100.00;101324.09;4881044;28;20049;-61
2022/10/29 07:24:43;;;;;;;7.85;2.60;;;;;;;5.75;100.00;101342.25;4871113;28;20047;-60
2022/10/29 07:27:26;;;;;;;11.20;3.50;;;;;;;5.73;100.00;101336.16;4827562;28;20098;-61
2022/10/29 07:30:14;;;;;;;11.13;3.40;;;;;;;5.73;100.00;101349.13;4851129;28;20046;-60
2022/10/29 07:32:52;;;;;;;11.80;3.78;;;;;;;5.72;100.00;101347.38;4832823;28;21520;-61
2022/10/29 07:35:46;;;;;;;14.15;3.92;;;;;;;5.66;100.00;101342.06;4802105;28;20053;-60
2022/10/29 07:38:34;;;;;;;14.75;3.38;;;;;;;5.75;100.00;101347.44;4855903;28;20049;-60
2022/10/29 07:41:09;;;;;;;12.82;4.00;;;;;;;5.77;100.00;101350.94;4876066;28;20049;-61
2022/10/29 07:43:46;;;;;;;17.63;4.32;;;;;;;5.75;100.00;101363.00;4839866;28;20119;-60
2022/10/29 07:46:41;;;;;;;13.82;4.20;;;;;;;5.76;100.00;101359.53;4826297;28;20046;-61
2022/10/29 07:52:50;;;;;;;14.98;5.25;;;;;;;5.76;100.00;101359.53;4860758;28;20057;-62
2022/10/29 07:55:28;;;;;;;14.73;4.20;;;;;;;5.76;100.00;101349.19;4853664;28;20101;-61
2022/10/29 07:58:24;;;;;;;6.07;2.80;;;;;;;5.55;100.00;101318.50;4880261;28;20337;-62
2022/10/29 08:01:06;;;;;;;10.00;4.07;;;;;;;5.10;100.00;101239.81;4863726;28;20050;-61
2022/10/29 08:03:58;;;;;;;12.35;4.07;;;;;;;5.76;100.00;101364.75;4862082;28;20081;-60
2022/10/29 08:06:37;;;;;;;16.42;4.60;;;;;;;5.76;100.00;101364.75;4843740;28;20054;-59
2022/10/29 08:12:25;;;;;;;20.02;4.25;;;;;;;5.73;100.00;101362.97;4858596;28;20046;-60
2022/10/29 08:15:23;;;;;;;15.93;3.95;;;;;;;5.73;100.00;101359.50;4861598;28;20065;-60
2022/10/29 08:21:11;;;;;;;22.85;3.95;;;;;;;5.63;100.00;101353.22;4874476;28;20050;-61
2022/10/29 08:24:04;;;;;;;40.90;4.10;;;;;;;5.55;100.00;101349.59;4853421;28;20128;-61
2022/10/29 08:26:43;;;;;;;35.50;4.80;;;;;;;5.58;100.00;101350.53;4797440;28;21020;-60
2022/10/29 08:29:33;;;;;;;62.92;6.38;;;;;;;5.56;100.00;101347.03;4864812;28;20034;-61
2022/10/29 08:32:11;;;;;;;28.15;6.65;;;;;;;5.53;100.00;101349.56;4854044;28;20130;-61
2022/10/29 08:35:05;;;;;;;26.50;6.90;;;;;;;5.54;100.00;101351.34;4846418;28;20754;-60
2022/10/29 08:38:04;;;;;;;20.73;5.20;;;;;;;5.51;100.00;101343.47;4852618;28;20085;-60
2022/10/29 08:41:16;;;;;;;18.30;4.47;;;;;;;5.52;100.00;101345.25;4861152;28;20049;-61
2022/10/29 08:44:40;;;;;;;17.15;3.70;;;;;;;5.52;100.00;101345.25;4861645;28;20052;-60
2022/10/29 08:47:24;;;;;;;11.77;3.22;;;;;;;5.44;100.00;101341.59;4801072;28;20068;-61
2022/10/29 08:50:13;;;;;;;11.48;2.80;;;;;;;4.92;100.00;101262.72;4867162;28;20062;-60
2022/10/29 08:53:07;;;;;;;8.73;2.88;;;;;;;5.48;100.00;101353.78;4862674;28;20045;-61
2022/10/29 08:55:56;;;;;;;11.50;2.95;;;;;;;5.45;100.00;101353.72;4839970;28;20045;-61
2022/10/29 08:58:50;;;;;;;15.50;2.80;;;;;;;5.44;100.00;101367.50;4814382;28;20049;-60
2022/10/29 09:01:36;;;;;;;12.93;4.03;;;;;;;5.43;100.00;101355.41;4867555;28;20054;-60
2022/10/29 09:04:33;;;;;;;10.55;3.70;;;;;;;5.44;100.00;101356.25;4883840;28;20046;-60
2022/10/29 09:07:46;;;;;;;8.93;2.70;;;;;;;5.43;100.00;101365.75;4841495;28;20065;-60
2022/10/29 09:10:41;;;;;;;16.48;3.17;;;;;;;5.44;100.00;101367.50;4850731;28;20246;-61
2022/10/29 09:13:44;;;;;;;12.73;3.10;;;;;;;5.28;100.00;101345.56;4876613;28;20085;-61
2022/10/29 09:16:41;;;;;;;13.75;2.72;;;;;;;4.82;100.00;101265.91;4853505;28;20096;-62
2022/10/29 09:20:01;;;;;;;12.30;3.40;;;;;;;5.39;100.00;101358.75;4870081;28;20509;-61
2022/10/29 09:22:54;;;;;;;10.35;3.00;;;;;;;5.41;100.00;101362.25;4856959;28;20053;-62
2022/10/29 09:28:48;;;;;;;8.48;3.08;;;;;;;4.88;100.00;101266.06;4853108;28;20101;-60
2022/10/29 09:31:33;;;;;;;10.23;3.05;;;;;;;5.45;100.00;101358.91;4779911;28;20069;-61
2022/10/29 09:34:21;;;;;;;16.13;3.65;;;;;;;5.45;100.00;101358.91;4860494;28;20055;-61
2022/10/29 09:37:09;;;;;;;10.02;2.83;;;;;;;5.46;100.00;101350.28;4837362;28;20064;-63
2022/10/29 09:39:55;;;;;;;14.05;2.88;;;;;;;4.81;100.00;101235.69;4841177;28;20049;-61
2022/10/29 09:42:42;;;;;;;11.63;2.95;;;;;;;5.47;100.00;101349.44;4876065;28;20370;-62
2022/10/29 09:45:45;;;;;;;16.40;3.42;;;;;;;5.47;100.00;101346.84;4855781;28;20054;-63
2022/10/29 09:48:30;;;;;;;16.92;3.17;;;;;;;5.47;100.00;101341.66;4830823;28;20041;-62
2022/10/29 09:51:27;;;;;;;12.60;3.72;;;;;;;5.51;100.00;101338.28;4870682;28;20086;-60
2022/10/29 09:54:21;;;;;;;17.38;3.63;;;;;;;5.50;100.00;101331.34;4862761;28;20101;-62
2022/10/29 09:57:16;;;;;;;27.92;4.63;;;;;;;5.52;100.00;101345.25;4812829;28;20168;-62
2022/10/29 10:03:05;;;;;;;164.23;9.98;;;;;;;5.49;100.00;101339.09;4820486;28;20380;-61
2022/10/29 10:06:00;;;;;;;123.50;7.68;;;;;;;5.21;100.00;101294.44;4854060;28;20041;-61
2022/10/29 10:09:03;;;;;;;122.28;8.45;;;;;;;5.48;100.00;101342.53;4858810;28;20064;-61
2022/10/29 10:11:51;;;;;;;108.57;8.00;;;;;;;5.46;100.00;101342.50;4858691;28;20060;-61
2022/10/29 10:14:32;;;;;;;39.85;6.18;;;;;;;5.48;100.00;101343.41;4856244;28;20529;-62
2022/10/29 10:17:38;;;;;;;126.55;7.90;;;;;;;5.50;100.00;101348.63;4820998;28;20046;-63
2022/10/29 10:20:43;;;;;;;211.43;12.88;;;;;;;5.51;100.00;101333.09;4869801;28;20057;-62
2022/10/29 10:23:34;;;;;;;469.13;20.27;;;;;;;5.44;100.00;101325.16;4866163;28;20312;-61
2022/10/29 10:26:49;;;;;;;257.55;13.80;;;;;;;5.54;100.00;101338.38;4872372;28;20192;-61
2022/10/29 10:32:22;;;;;;;274.52;13.93;;;;;;;5.39;100.00;101286.19;4842025;28;20034;-61
2022/10/29 10:34:58;;;;;;;197.98;11.52;;;;;;;5.58;100.00;101340.16;4860182;28;20038;-62
2022/10/29 10:37:46;;;;;;;111.00;9.45;;;;;;;5.59;100.00;101341.94;4847405;28;20077;-61
2022/10/29 10:40:30;;;;;;;191.50;11.07;;;;;;;5.59;100.00;101336.75;4856219;28;20051;-62
2022/10/29 10:43:22;;;;;;;126.50;11.18;;;;;;;5.62;100.00;101349.78;4859467;28;20053;-62
2022/10/29 10:46:17;;;;;;;171.88;10.85;;;;;;;5.62;100.00;101342.00;4846362;28;20076;-63
2022/10/29 10:49:05;;;;;;;188.57;12.90;;;;;;;5.65;100.00;101350.69;4872011;28;20595;-61
2022/10/29 10:52:22;;;;;;;252.27;14.70;;;;;;;5.66;100.00;101342.06;4869442;28;20058;-61
2022/10/29 10:55:05;;;;;;;382.55;17.20;;;;;;;5.63;100.00;101340.28;4847269;28;20061;-62
2022/10/29 10:58:00;;;;;;;199.18;13.85;;;;;;;5.54;100.00;101322.81;4868595;28;20050;-62
2022/10/29 11:01:02;;;;;;;83.15;7.68;;;;;;;5.63;100.00;101335.94;4875713;28;20057;-61
2022/10/29 11:04:04;;;;;;;256.90;11.15;;;;;;;5.59;100.00;101331.56;4869032;28;20307;-62
2022/10/29 11:06:51;;;;;;;203.82;9.43;;;;;;;5.60;100.00;101341.09;4870998;28;20069;-62
2022/10/29 11:09:45;;;;;;;187.23;9.15;;;;;;;5.60;100.00;101348.84;4824719;28;20045;-62
2022/10/29 11:12:32;;;;;;;262.98;11.55;;;;;;;5.58;100.00;101340.16;4806437;28;20050;-60
2022/10/29 11:15:18;;;;;;;288.58;14.35;;;;;;;5.57;100.00;101343.63;4840674;28;20053;-61
2022/10/29 11:18:14;;;;;;;296.48;13.73;;;;;;;5.58;100.00;101350.53;4833800;28;20073;-62
2022/10/29 11:21:09;;;;;;;239.63;13.60;;;;;;;5.10;100.00;101276.06;4831117;28;20051;-61
2022/10/29 11:24:16;;;;;;;207.57;10.15;;;;;;;5.60;100.00;101348.84;4812868;28;20294;-63
2022/10/29 11:27:02;;;;;;;95.85;7.70;;;;;;;5.62;100.00;101354.97;4825235;28;20046;-63
2022/10/29 11:29:57;;;;;;;70.18;6.00;;;;;;;5.63;100.00;101348.91;4800611;28;20063;-62
2022/10/29 11:32:52;;;;;;;49.70;4.43;;;;;;;5.48;100.00;101327.84;4773059;28;20065;-62
2022/10/29 11:36:01;;;;;;;30.95;4.43;;;;;;;5.59;100.00;101347.13;4784458;28;20111;-61
2022/10/29 11:38:46;;;;;;;38.53;3.92;;;;;;;5.43;100.00;101313.91;4815462;28;20035;-62
2022/10/29 11:41:40;;;;;;;30.65;4.20;;;;;;;5.22;100.00;101292.72;4780307;28;20458;-63
2022/10/29 11:44:25;;;;;;;21.98;3.88;;;;;;;5.59;100.00;101354.91;4819432;28;20079;-61
2022/10/29 11:47:22;;;;;;;14.63;3.13;;;;;;;5.59;100.00;101351.41;4823394;28;20070;-61
2022/10/29 11:50:17;;;;;;;35.15;3.45;;;;;;;5.56;100.00;101351.34;4780531;28;20066;-62
2022/10/29 11:53:50;;;;;;;12.68;3.15;;;;;;;5.54;100.00;101348.75;4814728;28;20044;-60
2022/10/29 11:56:46;;;;;;;10.07;2.88;;;;;;;5.49;100.00;101334.81;4793255;28;20118;-62
2022/10/29 11:59:58;;;;;;;11.52;2.67;;;;;;;5.54;100.00;101343.56;4828231;28;20194;-61
2022/10/29 12:06:14;;;;;;;8.43;2.30;;;;;;;5.51;100.00;101346.06;4981103;27;20234;-85
2022/10/29 12:08:57;;;;;;;7.28;2.13;;;;;;;5.51;100.00;101350.38;4959125;28;20123;-86
2022/10/29 12:11:40;;;;;;;10.98;2.58;;;;;;;4.71;100.00;101207.00;4969304;28;20343;-90
2022/10/29 12:14:26;;;;;;;5.05;2.22;;;;;;;5.40;100.00;101319.03;4969172;28;20066;-87
2022/10/29 12:17:04;;;;;;;10.65;2.20;;;;;;;5.44;100.00;101331.22;4968576;28;20043;-87
2022/10/29 12:19:45;;;;;;;9.40;2.55;;;;;;;5.30;100.00;101307.59;4969616;28;20410;-87
2022/10/29 12:22:45;;;;;;;10.98;2.35;;;;;;;5.38;100.00;101341.47;4969095;27;20062;-88
2022/10/29 12:25:29;;;;;;;19.42;3.08;;;;;;;5.38;100.00;101320.72;4958823;27;20052;-88
2022/10/29 12:28:17;;;;;;;66.43;4.35;;;;;;;5.40;100.00;101324.22;4960924;28;20054;-88
2022/10/29 12:31:05;;;;;;;82.93;4.97;;;;;;;5.52;100.00;101371.16;4956429;28;20070;-87
2022/10/29 12:33:46;;;;;;;27.52;3.22;;;;;;;5.04;100.00;101270.78;4968828;28;20046;-87
2022/10/29 12:36:25;;;;;;;44.92;3.88;;;;;;;5.54;100.00;101347.84;4969612;28;20039;-87
2022/10/29 12:39:00;;;;;;;23.20;3.53;;;;;;;5.56;100.00;101352.22;4969041;28;20047;-84
2022/10/29 12:41:37;;;;;;;18.23;3.60;;;;;;;5.56;100.00;101343.56;4980235;28;20049;-87
2022/10/29 12:44:15;;;;;;;19.17;3.00;;;;;;;5.50;100.00;101335.69;4969631;28;20342;-88
2022/10/29 12:46:55;;;;;;;12.70;3.17;;;;;;;5.57;100.00;101343.63;4970240;28;20223;-89
2022/10/29 12:49:39;;;;;;;19.80;3.10;;;;;;;5.57;100.00;101351.41;4969577;28;20116;-89
2022/10/29 12:52:17;;;;;;;66.85;4.93;;;;;;;5.60;100.00;101343.66;4967421;28;20062;-88
2022/10/29 12:54:53;;;;;;;75.63;5.00;;;;;;;5.55;100.00;101340.09;4963260;28;20111;-86
2022/10/29 12:57:42;;;;;;;72.15;4.95;;;;;;;5.50;100.00;101326.19;4975150;28;20048;-87
2022/10/29 13:00:47;;;;;;;53.25;3.30;;;;;;;5.41;100.00;101319.06;4972071;28;20122;-88
2022/10/29 13:03:54;;;;;;;68.55;4.05;;;;;;;5.55;100.00;101340.09;4972124;28;20047;-87
2022/10/29 13:06:48;;;;;;;40.65;3.25;;;;;;;5.53;100.00;101333.13;4971698;27;20289;-88
2022/10/29 13:09:21;;;;;;;71.88;4.57;;;;;;;5.55;100.00;101344.44;4957969;28;20258;-89
2022/10/29 13:11:55;;;;;;;113.53;5.75;;;;;;;5.05;100.00;101264.72;4979289;28;20055;-89
2022/10/29 13:14:32;;;;;;;90.93;4.70;;;;;;;5.06;100.00;101265.59;4969464;28;20048;-88
2022/10/29 13:17:06;;;;;;;49.85;4.65;;;;;;;5.01;100.00;101262.91;4963623;28;20343;-88
2022/10/29 13:19:45;;;;;;;101.47;5.35;;;;;;;5.54;100.00;101342.66;4966455;28;20103;-88
2022/10/29 13:22:50;;;;;;;87.68;4.95;;;;;;;5.56;100.00;101347.03;4959882;28;20061;-89
2022/10/29 13:25:43;;;;;;;44.72;3.85;;;;;;;5.55;100.00;101339.25;4968398;28;20070;-89
2022/10/29 13:28:50;;;;;;;136.65;6.32;;;;;;;5.56;100.00;101346.16;4947394;28;20100;-88
2022/10/29 13:31:51;;;;;;;78.53;4.82;;;;;;;5.56;100.00;101347.03;4965325;28;20118;-89
2022/10/29 13:34:59;;;;;;;24.77;3.63;;;;;;;5.58;100.00;101347.94;4965619;28;20067;-89
2022/10/29 13:37:54;;;;;;;47.15;3.75;;;;;;;5.49;100.00;101329.63;4954683;28;20057;-88
2022/10/29 13:41:08;;;;;;;35.88;3.67;;;;;;;5.57;100.00;101343.63;4945959;28;20059;-89